sensor_id;sensor_type;location;lat;lon;timestamp;pressure;altitude;pressure_sealevel;temperature;humidity
44872;BME280;30602;51.060;17.226;2023-04-20T00:01:56;101950.29;;;5.23;100.00
44872;BME280;30602;51.060;17.226;2023-04-20T00:05:24;101952.91;;;5.22;100.00
44872;BME280;30602;51.060;17.226;2023-04-20T00:09:08;101953.66;;;5.26;100.00
44872;BME280;30602;51.060;17.226;2023-04-20T00:12:54;101952.80;;;5.28;100.00
44872;BME280;30602;51.060;17.226;2023-04-20T00:16:28;101949.38;;;5.27;100.00
44872;BME280;30602;51.060;17.226;2023-04-20T00:20:17;101954.84;;;5.33;100.00
44872;BME280;30602;51.060;17.226;2023-04-20T00:24:05;101956.16;;;5.39;100.00
44872;BME280;30602;51.060;17.226;2023-04-20T00:27:29;101958.69;;;5.44;100.00
44872;BME280;30602;51.060;17.226;2023-04-20T00:31:02;101955.98;;;5.47;100.00
44872;BME280;30602;51.060;17.226;2023-04-20T00:34:34;101946.43;;;5.29;100.00
44872;BME280;30602;51.060;17.226;2023-04-20T00:38:00;101945.26;;;5.29;100.00
44872;BME280;30602;51.060;17.226;2023-04-20T00:41:45;101928.43;;;5.24;100.00
44872;BME280;30602;51.060;17.226;2023-04-20T00:46:00;101917.59;;;5.16;100.00
44872;BME280;30602;51.060;17.226;2023-04-20T00:49:54;101943.16;;;5.32;100.00
44872;BME280;30602;51.060;17.226;2023-04-20T00:53:23;101941.34;;;5.30;100.00
44872;BME280;30602;51.060;17.226;2023-04-20T00:57:04;101917.89;;;5.14;100.00
44872;BME280;30602;51.060;17.226;2023-04-20T01:04:57;101938.48;;;5.27;100.00
44872;BME280;30602;51.060;17.226;2023-04-20T01:08:51;101942.55;;;5.26;100.00
44872;BME280;30602;51.060;17.226;2023-04-20T01:12:47;101943.49;;;5.22;100.00
44872;BME280;30602;51.060;17.226;2023-04-20T01:16:27;101946.47;;;5.33;100.00
44872;BME280;30602;51.060;17.226;2023-04-20T01:20:22;101939.47;;;5.42;100.00
44872;BME280;30602;51.060;17.226;2023-04-20T01:23:40;101936.57;;;5.38;100.00
44872;BME280;30602;51.060;17.226;2023-04-20T01:27:16;101935.12;;;5.36;100.00
44872;BME280;30602;51.060;17.226;2023-04-20T01:30:59;101922.35;;;5.30;100.00
44872;BME280;30602;51.060;17.226;2023-04-20T01:34:33;101925.08;;;5.31;100.00
44872;BME280;30602;51.060;17.226;2023-04-20T01:37:54;101930.26;;;5.33;100.00
44872;BME280;30602;51.060;17.226;2023-04-20T01:41:16;101926.80;;;5.27;100.00
44872;BME280;30602;51.060;17.226;2023-04-20T01:44:43;101928.48;;;5.28;100.00
44872;BME280;30602;51.060;17.226;2023-04-20T01:48:27;101903.35;;;5.14;100.00
44872;BME280;30602;51.060;17.226;2023-04-20T01:52:25;101916.36;;;5.24;100.00
44872;BME280;30602;51.060;17.226;2023-04-20T01:56:40;101913.80;;;5.24;100.00
44872;BME280;30602;51.060;17.226;2023-04-20T02:00:27;101918.93;;;5.23;100.00
44872;BME280;30602;51.060;17.226;2023-04-20T02:04:53;101923.46;;;5.22;100.00
44872;BME280;30602;51.060;17.226;2023-04-20T02:09:24;101923.87;;;5.30;100.00
44872;BME280;30602;51.060;17.226;2023-04-20T02:13:11;101919.65;;;5.32;99.52
44872;BME280;30602;51.060;17.226;2023-04-20T02:16:52;101913.95;;;5.26;99.28
44872;BME280;30602;51.060;17.226;2023-04-20T02:20:30;101920.06;;;5.36;99.37
44872;BME280;30602;51.060;17.226;2023-04-20T02:24:10;101913.44;;;5.28;99.59
44872;BME280;30602;51.060;17.226;2023-04-20T02:27:48;101912.73;;;5.29;99.37
44872;BME280;30602;51.060;17.226;2023-04-20T02:31:29;101914.29;;;5.24;99.40
44872;BME280;30602;51.060;17.226;2023-04-20T02:34:52;101908.02;;;5.15;99.78
44872;BME280;30602;51.060;17.226;2023-04-20T02:39:20;101906.27;;;5.14;99.93
44872;BME280;30602;51.060;17.226;2023-04-20T02:42:46;101894.23;;;5.18;100.00
44872;BME280;30602;51.060;17.226;2023-04-20T02:46:40;101890.23;;;5.20;100.00
44872;BME280;30602;51.060;17.226;2023-04-20T02:50:26;101890.83;;;5.16;99.92
44872;BME280;30602;51.060;17.226;2023-04-20T02:54:11;101900.67;;;5.16;100.00
44872;BME280;30602;51.060;17.226;2023-04-20T02:58:32;101905.92;;;5.22;100.00
44872;BME280;30602;51.060;17.226;2023-04-20T03:02:00;101911.62;;;5.28;100.00
44872;BME280;30602;51.060;17.226;2023-04-20T03:05:46;101910.95;;;5.29;100.00
44872;BME280;30602;51.060;17.226;2023-04-20T03:09:36;101907.02;;;5.28;100.00
44872;BME280;30602;51.060;17.226;2023-04-20T03:13:41;101908.44;;;5.27;100.00
44872;BME280;30602;51.060;17.226;2023-04-20T03:17:32;101898.05;;;5.10;100.00
44872;BME280;30602;51.060;17.226;2023-04-20T03:21:05;101904.40;;;5.17;100.00
44872;BME280;30602;51.060;17.226;2023-04-20T03:24:30;101903.38;;;5.17;100.00
44872;BME280;30602;51.060;17.226;2023-04-20T03:28:12;101906.74;;;5.18;100.00
44872;BME280;30602;51.060;17.226;2023-04-20T03:32:08;101909.41;;;5.18;100.00
44872;BME280;30602;51.060;17.226;2023-04-20T03:35:31;101905.53;;;5.21;100.00
44872;BME280;30602;51.060;17.226;2023-04-20T03:39:07;101909.05;;;5.17;100.00
44872;BME280;30602;51.060;17.226;2023-04-20T03:42:46;101904.51;;;5.20;100.00
44872;BME280;30602;51.060;17.226;2023-04-20T03:46:50;101908.22;;;5.29;100.00
44872;BME280;30602;51.060;17.226;2023-04-20T03:50:34;101917.39;;;5.43;100.00
44872;BME280;30602;51.060;17.226;2023-04-20T03:54:22;101918.59;;;5.44;100.00
44872;BME280;30602;51.060;17.226;2023-04-20T03:58:43;101920.64;;;5.40;100.00
44872;BME280;30602;51.060;17.226;2023-04-20T04:02:30;101928.45;;;5.41;100.00
44872;BME280;30602;51.060;17.226;2023-04-20T04:06:13;101927.92;;;5.40;100.00
44872;BME280;30602;51.060;17.226;2023-04-20T04:10:26;101928.07;;;5.38;100.00
44872;BME280;30602;51.060;17.226;2023-04-20T04:14:15;101926.82;;;5.36;100.00
44872;BME280;30602;51.060;17.226;2023-04-20T04:17:43;101932.92;;;5.41;100.00
44872;BME280;30602;51.060;17.226;2023-04-20T04:21:46;101905.23;;;5.31;100.00
44872;BME280;30602;51.060;17.226;2023-04-20T04:25:31;101931.63;;;5.56;100.00
44872;BME280;30602;51.060;17.226;2023-04-20T04:29:18;101921.82;;;5.42;100.00
44872;BME280;30602;51.060;17.226;2023-04-20T04:33:04;101926.46;;;5.58;100.00
44872;BME280;30602;51.060;17.226;2023-04-20T04:36:30;101931.08;;;5.64;100.00
44872;BME280;30602;51.060;17.226;2023-04-20T04:40:24;101933.32;;;5.76;100.00
44872;BME280;30602;51.060;17.226;2023-04-20T04:44:53;101930.04;;;5.74;100.00
44872;BME280;30602;51.060;17.226;2023-04-20T04:48:22;101933.64;;;5.79;100.00
44872;BME280;30602;51.060;17.226;2023-04-20T04:51:49;101938.40;;;5.74;100.00
44872;BME280;30602;51.060;17.226;2023-04-20T04:55:25;101945.06;;;5.75;100.00
44872;BME280;30602;51.060;17.226;2023-04-20T04:58:46;101944.23;;;5.76;100.00
44872;BME280;30602;51.060;17.226;2023-04-20T05:02:46;101920.26;;;5.63;100.00
44872;BME280;30602;51.060;17.226;2023-04-20T05:06:50;101944.89;;;5.81;100.00
44872;BME280;30602;51.060;17.226;2023-04-20T05:10:14;101945.58;;;5.82;100.00
44872;BME280;30602;51.060;17.226;2023-04-20T05:13:36;101947.23;;;5.84;100.00
44872;BME280;30602;51.060;17.226;2023-04-20T05:17:09;101950.45;;;5.82;100.00
44872;BME280;30602;51.060;17.226;2023-04-20T05:20:29;101953.23;;;5.79;100.00
44872;BME280;30602;51.060;17.226;2023-04-20T05:24:39;101954.19;;;5.82;100.00
44872;BME280;30602;51.060;17.226;2023-04-20T05:28:13;101951.96;;;5.92;100.00
44872;BME280;30602;51.060;17.226;2023-04-20T05:31:45;101943.43;;;5.97;100.00
44872;BME280;30602;51.060;17.226;2023-04-20T05:35:13;101955.29;;;6.01;100.00
44872;BME280;30602;51.060;17.226;2023-04-20T05:38:35;101956.11;;;6.03;100.00
44872;BME280;30602;51.060;17.226;2023-04-20T05:42:54;101941.38;;;5.90;100.00
44872;BME280;30602;51.060;17.226;2023-04-20T05:46:40;101968.26;;;6.04;100.00
44872;BME280;30602;51.060;17.226;2023-04-20T05:50:07;101972.79;;;6.03;100.00
44872;BME280;30602;51.060;17.226;2023-04-20T05:54:39;101962.25;;;6.13;100.00
44872;BME280;30602;51.060;17.226;2023-04-20T05:58:05;101969.71;;;6.11;100.00
44872;BME280;30602;51.060;17.226;2023-04-20T06:01:52;101975.86;;;6.13;100.00
44872;BME280;30602;51.060;17.226;2023-04-20T06:06:06;101969.29;;;6.16;100.00
44872;BME280;30602;51.060;17.226;2023-04-20T06:09:47;101972.85;;;6.25;100.00
44872;BME280;30602;51.060;17.226;2023-04-20T06:13:29;101964.42;;;6.14;100.00
44872;BME280;30602;51.060;17.226;2023-04-20T06:18:03;101980.25;;;6.41;100.00
44872;BME280;30602;51.060;17.226;2023-04-20T06:22:11;101983.58;;;6.51;100.00
44872;BME280;30602;51.060;17.226;2023-04-20T06:26:03;101989.37;;;6.53;100.00
44872;BME280;30602;51.060;17.226;2023-04-20T06:34:12;101972.88;;;6.42;100.00
44872;BME280;30602;51.060;17.226;2023-04-20T06:37:43;101987.55;;;6.56;100.00
44872;BME280;30602;51.060;17.226;2023-04-20T06:41:08;101985.78;;;6.57;100.00
44872;BME280;30602;51.060;17.226;2023-04-20T06:44:43;101988.47;;;6.68;100.00
44872;BME280;30602;51.060;17.226;2023-04-20T06:48:47;101993.45;;;6.71;100.00
44872;BME280;30602;51.060;17.226;2023-04-20T06:52:29;101995.49;;;6.84;100.00
44872;BME280;30602;51.060;17.226;2023-04-20T06:56:55;101989.20;;;6.95;100.00
44872;BME280;30602;51.060;17.226;2023-04-20T07:00:35;101995.15;;;7.07;100.00
44872;BME280;30602;51.060;17.226;2023-04-20T07:04:36;101991.05;;;7.09;100.00
44872;BME280;30602;51.060;17.226;2023-04-20T07:08:40;101996.76;;;7.12;100.00
44872;BME280;30602;51.060;17.226;2023-04-20T07:12:20;101994.63;;;7.44;100.00
44872;BME280;30602;51.060;17.226;2023-04-20T07:15:49;101994.00;;;7.55;100.00
44872;BME280;30602;51.060;17.226;2023-04-20T07:19:26;101999.41;;;7.55;100.00
44872;BME280;30602;51.060;17.226;2023-04-20T07:23:15;102003.63;;;7.54;100.00
44872;BME280;30602;51.060;17.226;2023-04-20T07:27:10;102012.53;;;7.67;100.00
44872;BME280;30602;51.060;17.226;2023-04-20T07:30:36;102020.09;;;7.66;100.00
44872;BME280;30602;51.060;17.226;2023-04-20T07:34:24;102019.79;;;7.69;100.00
44872;BME280;30602;51.060;17.226;2023-04-20T07:38:26;102019.52;;;7.58;100.00
44872;BME280;30602;51.060;17.226;2023-04-20T07:42:23;102002.39;;;7.63;100.00
44872;BME280;30602;51.060;17.226;2023-04-20T07:50:12;102003.59;;;7.97;100.00
44872;BME280;30602;51.060;17.226;2023-04-20T07:54:10;102009.77;;;8.21;99.92
44872;BME280;30602;51.060;17.226;2023-04-20T07:57:55;102007.47;;;8.22;98.81
44872;BME280;30602;51.060;17.226;2023-04-20T08:01:52;102012.15;;;8.38;98.79
44872;BME280;30602;51.060;17.226;2023-04-20T08:05:27;102018.09;;;8.42;98.64
44872;BME280;30602;51.060;17.226;2023-04-20T08:09:06;102014.91;;;8.61;98.36
44872;BME280;30602;51.060;17.226;2023-04-20T08:12:57;102016.13;;;8.69;98.72
44872;BME280;30602;51.060;17.226;2023-04-20T08:16:37;101995.67;;;8.58;97.58
44872;BME280;30602;51.060;17.226;2023-04-20T08:20:01;102014.50;;;8.66;97.88
44872;BME280;30602;51.060;17.226;2023-04-20T08:24:04;102017.88;;;8.64;98.39
44872;BME280;30602;51.060;17.226;2023-04-20T08:28:19;102020.00;;;8.61;97.91
44872;BME280;30602;51.060;17.226;2023-04-20T08:32:05;102021.05;;;8.58;98.57
44872;BME280;30602;51.060;17.226;2023-04-20T08:35:41;102015.63;;;8.70;98.10
44872;BME280;30602;51.060;17.226;2023-04-20T08:39:28;102001.35;;;8.78;98.26
44872;BME280;30602;51.060;17.226;2023-04-20T08:43:22;102012.23;;;8.84;97.69
44872;BME280;30602;51.060;17.226;2023-04-20T08:47:02;102014.11;;;8.76;97.70
44872;BME280;30602;51.060;17.226;2023-04-20T08:50:47;102009.46;;;8.71;99.00
44872;BME280;30602;51.060;17.226;2023-04-20T08:54:47;102007.28;;;8.72;99.44
44872;BME280;30602;51.060;17.226;2023-04-20T08:58:17;102010.30;;;8.75;99.70
44872;BME280;30602;51.060;17.226;2023-04-20T09:06:24;102022.34;;;8.77;98.58
44872;BME280;30602;51.060;17.226;2023-04-20T09:10:09;102022.45;;;9.01;99.49
44872;BME280;30602;51.060;17.226;2023-04-20T09:13:41;102015.12;;;8.94;97.98
44872;BME280;30602;51.060;17.226;2023-04-20T09:17:06;102024.57;;;9.17;96.28
44872;BME280;30602;51.060;17.226;2023-04-20T09:21:13;102017.85;;;9.46;94.78
44872;BME280;30602;51.060;17.226;2023-04-20T09:29:00;102012.71;;;9.66;93.72
44872;BME280;30602;51.060;17.226;2023-04-20T09:33:03;101999.42;;;9.93;92.93
44872;BME280;30602;51.060;17.226;2023-04-20T09:36:54;102015.13;;;10.20;91.50
44872;BME280;30602;51.060;17.226;2023-04-20T09:40:52;102014.12;;;10.21;90.98
44872;BME280;30602;51.060;17.226;2023-04-20T09:45:03;102016.89;;;10.29;91.72
44872;BME280;30602;51.060;17.226;2023-04-20T09:52:22;101992.87;;;10.68;88.76
44872;BME280;30602;51.060;17.226;2023-04-20T09:55:49;101987.88;;;10.77;89.49
44872;BME280;30602;51.060;17.226;2023-04-20T09:59:35;101991.02;;;10.94;87.92
44872;BME280;30602;51.060;17.226;2023-04-20T10:03:06;101991.42;;;11.09;87.18
44872;BME280;30602;51.060;17.226;2023-04-20T10:06:57;101990.13;;;11.00;87.31
44872;BME280;30602;51.060;17.226;2023-04-20T10:10:48;101991.24;;;11.37;86.94
44872;BME280;30602;51.060;17.226;2023-04-20T10:14:29;101994.54;;;11.14;85.99
44872;BME280;30602;51.060;17.226;2023-04-20T10:17:58;101994.30;;;10.97;86.80
44872;BME280;30602;51.060;17.226;2023-04-20T10:21:19;101995.30;;;10.91;87.73
44872;BME280;30602;51.060;17.226;2023-04-20T10:25:15;101989.78;;;10.98;88.30
44872;BME280;30602;51.060;17.226;2023-04-20T10:33:05;101981.12;;;11.07;87.03
44872;BME280;30602;51.060;17.226;2023-04-20T10:40:29;101972.09;;;11.71;84.82
44872;BME280;30602;51.060;17.226;2023-04-20T10:43:53;101976.56;;;11.65;85.33
44872;BME280;30602;51.060;17.226;2023-04-20T10:48:26;101950.70;;;11.43;84.60
44872;BME280;30602;51.060;17.226;2023-04-20T10:52:16;101969.98;;;11.48;87.68
44872;BME280;30602;51.060;17.226;2023-04-20T10:55:59;101963.73;;;12.29;86.51
44872;BME280;30602;51.060;17.226;2023-04-20T11:04:08;101953.47;;;11.70;84.13
44872;BME280;30602;51.060;17.226;2023-04-20T11:12:43;101930.52;;;12.80;83.74
44872;BME280;30602;51.060;17.226;2023-04-20T11:16:15;101937.01;;;13.01;81.36
44872;BME280;30602;51.060;17.226;2023-04-20T11:19:47;101923.44;;;12.95;81.43
44872;BME280;30602;51.060;17.226;2023-04-20T11:23:37;101917.45;;;13.18;79.24
44872;BME280;30602;51.060;17.226;2023-04-20T11:31:36;101921.32;;;13.37;78.58
44872;BME280;30602;51.060;17.226;2023-04-20T11:39:32;101914.55;;;13.19;78.64
44872;BME280;30602;51.060;17.226;2023-04-20T11:44:02;101908.23;;;13.30;78.41
44872;BME280;30602;51.060;17.226;2023-04-20T11:47:43;101904.64;;;13.60;77.33
44872;BME280;30602;51.060;17.226;2023-04-20T11:51:13;101900.30;;;13.73;75.82
44872;BME280;30602;51.060;17.226;2023-04-20T11:55:15;101893.91;;;13.86;74.35
44872;BME280;30602;51.060;17.226;2023-04-20T11:59:01;101896.65;;;14.12;73.11
44872;BME280;30602;51.060;17.226;2023-04-20T12:03:11;101887.92;;;14.61;74.57
44872;BME280;30602;51.060;17.226;2023-04-20T12:06:39;101872.84;;;14.70;73.83
44872;BME280;30602;51.060;17.226;2023-04-20T12:10:34;101878.17;;;14.82;69.88
44872;BME280;30602;51.060;17.226;2023-04-20T12:14:04;101878.66;;;14.87;67.77
44872;BME280;30602;51.060;17.226;2023-04-20T12:18:11;101873.38;;;14.57;68.43
44872;BME280;30602;51.060;17.226;2023-04-20T12:21:57;101878.35;;;14.30;71.92
44872;BME280;30602;51.060;17.226;2023-04-20T12:25:25;101869.16;;;14.54;70.97
44872;BME280;30602;51.060;17.226;2023-04-20T12:29:05;101870.33;;;14.58;69.69
44872;BME280;30602;51.060;17.226;2023-04-20T12:33:04;101869.92;;;14.72;68.43
44872;BME280;30602;51.060;17.226;2023-04-20T12:36:52;101865.30;;;14.80;69.52
44872;BME280;30602;51.060;17.226;2023-04-20T12:40:52;101855.14;;;15.00;70.72
44872;BME280;30602;51.060;17.226;2023-04-20T12:44:38;101848.77;;;15.14;68.11
44872;BME280;30602;51.060;17.226;2023-04-20T12:49:00;101848.47;;;15.22;67.58
44872;BME280;30602;51.060;17.226;2023-04-20T12:52:27;101845.75;;;15.36;67.65
44872;BME280;30602;51.060;17.226;2023-04-20T12:55:51;101844.90;;;15.14;66.39
44872;BME280;30602;51.060;17.226;2023-04-20T12:59:41;101838.59;;;15.10;69.04
44872;BME280;30602;51.060;17.226;2023-04-20T13:03:24;101844.27;;;14.97;69.74
44872;BME280;30602;51.060;17.226;2023-04-20T13:07:04;101845.32;;;14.93;70.42
44872;BME280;30602;51.060;17.226;2023-04-20T13:10:27;101840.33;;;14.88;70.02
44872;BME280;30602;51.060;17.226;2023-04-20T13:14:11;101838.22;;;15.11;69.58
44872;BME280;30602;51.060;17.226;2023-04-20T13:17:57;101833.66;;;15.33;69.24
44872;BME280;30602;51.060;17.226;2023-04-20T13:21:37;101828.05;;;15.42;68.01
44872;BME280;30602;51.060;17.226;2023-04-20T13:25:34;101825.26;;;15.47;67.67
44872;BME280;30602;51.060;17.226;2023-04-20T13:29:13;101822.99;;;15.44;69.23
44872;BME280;30602;51.060;17.226;2023-04-20T13:33:09;101824.94;;;15.76;70.01
44872;BME280;30602;51.060;17.226;2023-04-20T13:36:51;101827.73;;;15.78;66.24
44872;BME280;30602;51.060;17.226;2023-04-20T13:40:19;101829.60;;;15.53;66.86
44872;BME280;30602;51.060;17.226;2023-04-20T13:43:53;101830.26;;;15.60;68.09
44872;BME280;30602;51.060;17.226;2023-04-20T13:47:29;101826.53;;;15.64;66.20
44872;BME280;30602;51.060;17.226;2023-04-20T13:51:23;101827.85;;;15.46;65.46
44872;BME280;30602;51.060;17.226;2023-04-20T13:55:25;101829.36;;;15.38;66.51
44872;BME280;30602;51.060;17.226;2023-04-20T13:59:11;101828.88;;;15.31;66.16
44872;BME280;30602;51.060;17.226;2023-04-20T14:02:54;101829.54;;;15.39;66.42
44872;BME280;30602;51.060;17.226;2023-04-20T14:07:01;101825.96;;;15.45;66.42
44872;BME280;30602;51.060;17.226;2023-04-20T14:10:34;101824.89;;;15.67;65.68
44872;BME280;30602;51.060;17.226;2023-04-20T14:14:18;101822.34;;;15.92;64.27
44872;BME280;30602;51.060;17.226;2023-04-20T14:18:01;101819.13;;;16.22;63.93
44872;BME280;30602;51.060;17.226;2023-04-20T14:21:41;101823.70;;;16.15;64.76
44872;BME280;30602;51.060;17.226;2023-04-20T14:25:27;101816.56;;;16.33;63.47
44872;BME280;30602;51.060;17.226;2023-04-20T14:28:50;101817.07;;;16.11;63.43
44872;BME280;30602;51.060;17.226;2023-04-20T14:32:13;101818.62;;;16.04;65.04
44872;BME280;30602;51.060;17.226;2023-04-20T14:35:43;101818.19;;;15.94;65.08
44872;BME280;30602;51.060;17.226;2023-04-20T14:39:24;101815.70;;;15.65;64.38
44872;BME280;30602;51.060;17.226;2023-04-20T14:42:47;101810.75;;;15.39;65.11
44872;BME280;30602;51.060;17.226;2023-04-20T14:46:10;101810.55;;;15.55;64.09
44872;BME280;30602;51.060;17.226;2023-04-20T14:49:51;101807.31;;;15.70;65.25
44872;BME280;30602;51.060;17.226;2023-04-20T14:53:30;101805.55;;;15.99;66.72
44872;BME280;30602;51.060;17.226;2023-04-20T14:57:09;101804.23;;;15.93;66.00
44872;BME280;30602;51.060;17.226;2023-04-20T15:00:50;101806.25;;;15.92;63.95
44872;BME280;30602;51.060;17.226;2023-04-20T15:04:48;101804.05;;;15.76;62.28
44872;BME280;30602;51.060;17.226;2023-04-20T15:08:32;101806.74;;;15.78;63.42
44872;BME280;30602;51.060;17.226;2023-04-20T15:12:09;101801.01;;;15.61;65.47
44872;BME280;30602;51.060;17.226;2023-04-20T15:16:17;101806.27;;;15.58;65.03
44872;BME280;30602;51.060;17.226;2023-04-20T15:19:56;101807.20;;;15.56;64.09
44872;BME280;30602;51.060;17.226;2023-04-20T15:23:54;101806.54;;;15.54;64.85
44872;BME280;30602;51.060;17.226;2023-04-20T15:27:16;101806.12;;;15.55;65.09
44872;BME280;30602;51.060;17.226;2023-04-20T15:31:00;101804.77;;;15.50;64.30
44872;BME280;30602;51.060;17.226;2023-04-20T15:35:05;101805.90;;;15.56;66.08
44872;BME280;30602;51.060;17.226;2023-04-20T15:38:27;101803.84;;;15.48;64.70
44872;BME280;30602;51.060;17.226;2023-04-20T15:42:37;101805.01;;;15.49;65.63
44872;BME280;30602;51.060;17.226;2023-04-20T15:46:00;101796.91;;;15.44;65.16
44872;BME280;30602;51.060;17.226;2023-04-20T15:49:49;101800.13;;;15.43;66.72
44872;BME280;30602;51.060;17.226;2023-04-20T15:53:21;101805.56;;;15.36;65.22
44872;BME280;30602;51.060;17.226;2023-04-20T15:56:49;101803.66;;;15.36;64.75
44872;BME280;30602;51.060;17.226;2023-04-20T16:00:13;101797.41;;;15.37;66.50
44872;BME280;30602;51.060;17.226;2023-04-20T16:03:38;101796.78;;;15.45;65.05
44872;BME280;30602;51.060;17.226;2023-04-20T16:11:08;101793.80;;;15.50;65.76
44872;BME280;30602;51.060;17.226;2023-04-20T16:14:32;101793.22;;;15.42;65.45
44872;BME280;30602;51.060;17.226;2023-04-20T16:22:33;101798.35;;;15.34;64.30
44872;BME280;30602;51.060;17.226;2023-04-20T16:25:59;101799.68;;;15.29;66.25
44872;BME280;30602;51.060;17.226;2023-04-20T16:29:42;101799.03;;;15.28;65.87
44872;BME280;30602;51.060;17.226;2023-04-20T16:33:27;101804.69;;;15.24;68.11
44872;BME280;30602;51.060;17.226;2023-04-20T16:37:12;101804.16;;;15.22;66.86
44872;BME280;30602;51.060;17.226;2023-04-20T16:40:51;101803.67;;;15.12;67.46
44872;BME280;30602;51.060;17.226;2023-04-20T16:44:15;101805.76;;;15.07;68.85
44872;BME280;30602;51.060;17.226;2023-04-20T16:48:00;101801.52;;;14.93;69.13
44872;BME280;30602;51.060;17.226;2023-04-20T16:51:56;101802.22;;;14.78;69.78
44872;BME280;30602;51.060;17.226;2023-04-20T16:55:39;101799.62;;;14.64;69.88
44872;BME280;30602;51.060;17.226;2023-04-20T16:59:23;101791.47;;;14.53;71.06
44872;BME280;30602;51.060;17.226;2023-04-20T17:03:08;101801.63;;;14.47;71.49
44872;BME280;30602;51.060;17.226;2023-04-20T17:06:55;101803.91;;;14.32;72.38
44872;BME280;30602;51.060;17.226;2023-04-20T17:10:40;101803.87;;;14.25;73.43
44872;BME280;30602;51.060;17.226;2023-04-20T17:14:40;101805.61;;;14.21;74.20
44872;BME280;30602;51.060;17.226;2023-04-20T17:18:22;101812.02;;;13.98;75.48
44872;BME280;30602;51.060;17.226;2023-04-20T17:22:21;101824.19;;;13.77;76.78
44872;BME280;30602;51.060;17.226;2023-04-20T17:26:17;101822.78;;;13.64;77.80
44872;BME280;30602;51.060;17.226;2023-04-20T17:30:02;101822.37;;;13.41;78.17
44872;BME280;30602;51.060;17.226;2023-04-20T17:33:49;101823.05;;;13.37;78.16
44872;BME280;30602;51.060;17.226;2023-04-20T17:37:11;101825.77;;;13.32;78.65
44872;BME280;30602;51.060;17.226;2023-04-20T17:41:08;101825.75;;;13.16;80.47
44872;BME280;30602;51.060;17.226;2023-04-20T17:44:51;101828.66;;;13.07;81.63
44872;BME280;30602;51.060;17.226;2023-04-20T17:49:09;101826.54;;;13.08;82.38
44872;BME280;30602;51.060;17.226;2023-04-20T17:53:01;101825.85;;;12.89;83.48
44872;BME280;30602;51.060;17.226;2023-04-20T17:57:02;101822.73;;;12.82;83.77
44872;BME280;30602;51.060;17.226;2023-04-20T18:00:27;101822.73;;;12.69;83.74
44872;BME280;30602;51.060;17.226;2023-04-20T18:03:50;101825.51;;;12.65;84.22
44872;BME280;30602;51.060;17.226;2023-04-20T18:07:44;101824.33;;;12.55;84.44
44872;BME280;30602;51.060;17.226;2023-04-20T18:11:31;101827.09;;;12.45;84.25
44872;BME280;30602;51.060;17.226;2023-04-20T18:16:00;101832.82;;;12.34;85.29
44872;BME280;30602;51.060;17.226;2023-04-20T18:19:39;101831.54;;;12.14;86.34
44872;BME280;30602;51.060;17.226;2023-04-20T18:23:16;101838.48;;;12.10;86.93
44872;BME280;30602;51.060;17.226;2023-04-20T18:26:57;101841.09;;;11.99;86.91
44872;BME280;30602;51.060;17.226;2023-04-20T18:31:11;101841.92;;;11.88;87.22
44872;BME280;30602;51.060;17.226;2023-04-20T18:34:40;101835.64;;;11.65;88.15
44872;BME280;30602;51.060;17.226;2023-04-20T18:38:24;101850.76;;;11.57;89.61
44872;BME280;30602;51.060;17.226;2023-04-20T18:41:58;101854.14;;;11.48;89.57
44872;BME280;30602;51.060;17.226;2023-04-20T18:45:22;101853.57;;;11.39;89.58
44872;BME280;30602;51.060;17.226;2023-04-20T18:49:23;101856.13;;;11.31;89.54
44872;BME280;30602;51.060;17.226;2023-04-20T18:53:10;101852.80;;;11.21;89.20
44872;BME280;30602;51.060;17.226;2023-04-20T18:56:47;101850.56;;;11.13;89.42
44872;BME280;30602;51.060;17.226;2023-04-20T19:00:09;101854.84;;;11.13;89.19
44872;BME280;30602;51.060;17.226;2023-04-20T19:03:53;101852.51;;;11.06;89.01
44872;BME280;30602;51.060;17.226;2023-04-20T19:07:40;101855.00;;;10.98;89.55
44872;BME280;30602;51.060;17.226;2023-04-20T19:11:35;101856.86;;;10.85;90.33
44872;BME280;30602;51.060;17.226;2023-04-20T19:15:28;101855.25;;;10.82;90.38
44872;BME280;30602;51.060;17.226;2023-04-20T19:18:57;101857.82;;;10.65;90.94
44872;BME280;30602;51.060;17.226;2023-04-20T19:22:32;101855.78;;;10.53;91.54
44872;BME280;30602;51.060;17.226;2023-04-20T19:26:00;101861.60;;;10.43;92.07
44872;BME280;30602;51.060;17.226;2023-04-20T19:30:01;101860.97;;;10.32;92.39
44872;BME280;30602;51.060;17.226;2023-04-20T19:33:57;101858.70;;;10.27;92.58
44872;BME280;30602;51.060;17.226;2023-04-20T19:38:05;101862.65;;;10.22;93.01
44872;BME280;30602;51.060;17.226;2023-04-20T19:41:46;101863.16;;;10.17;92.74
44872;BME280;30602;51.060;17.226;2023-04-20T19:45:19;101864.10;;;10.30;92.03
44872;BME280;30602;51.060;17.226;2023-04-20T19:49:17;101862.85;;;10.16;92.70
44872;BME280;30602;51.060;17.226;2023-04-20T19:52:54;101867.54;;;10.02;93.53
44872;BME280;30602;51.060;17.226;2023-04-20T19:56:14;101865.52;;;10.03;93.95
44872;BME280;30602;51.060;17.226;2023-04-20T19:59:43;101863.42;;;9.93;93.85
44872;BME280;30602;51.060;17.226;2023-04-20T20:03:16;101861.54;;;9.84;93.93
44872;BME280;30602;51.060;17.226;2023-04-20T20:06:45;101861.49;;;9.81;94.00
44872;BME280;30602;51.060;17.226;2023-04-20T20:10:10;101857.72;;;9.88;93.24
44872;BME280;30602;51.060;17.226;2023-04-20T20:14:09;101860.37;;;9.88;93.14
44872;BME280;30602;51.060;17.226;2023-04-20T20:17:56;101861.20;;;10.04;92.12